Ayr, Nebraska
Current Conditions -  °F | °C
As of 1:53 AM on Saturday 22 Nov 2014 (Local Time) from KHSI Reporting Station
Haze Haze  
Wind Chill: 27°   Ceiling: Unl
Heat Index: 34°   Visibility: 4mi
Dew Point: 31°   Wind: 8mph
Humidity: 89%   Direction: 200°SSW
Pressure: 29.91"   Gusts: NA
Location:  40.44°N, 98.44°W
Report Text: KHSI 220753Z AUTO 20007KT 4SM BR CLR 01/M01 A2991 RMK AO2 SLP137 T00111006
Loading
Personal Weather Stations






























Interactive Weather Map New forecast layout! Learn more

10-Day Weather Forecast

Advertisements
Track Severe Weather on mobile